ADDS METAR Data INFO
IDs: Format: Raw Decoded Include TAF

Data at: 2335 UTC 15 Dec 2017

KIKT 152315Z AUTO 02010G21KT 320V040 10SM OVC046 16/10 A3015 RMK A01
KIKT 152255Z AUTO 36008G16KT 320V040 10SM OVC045 16/10 A3015 RMK A01
KIKT 152235Z AUTO 01009G17KT 340V040 10SM OVC044 16/10 A3015 RMK A01
KIKT 152215Z AUTO 01012G19KT 330V030 10SM OVC044 16/11 A3014 RMK A01
KIKT 152155Z AUTO 36007G20KT 300V050 10SM OVC043 16/11 A3014 RMK A01
KIKT 152135Z AUTO 36009G19KT 320V040 10SM OVC041 16/10 A3013 RMK A01
KIKT 152115Z AUTO VRB06G16KT 10SM BKN042 OVC050 16/10 A3013 RMK A01
KIKT 152055Z AUTO 02009G22KT 330V040 10SM FEW023 BKN041 OVC050 16/10 A3012 RMK A01
KIKT 152035Z AUTO VRB06G19KT 10SM SCT022 BKN039 OVC050 16/11 A3012 RMK A01
KIKT 152015Z AUTO 35007G15KT 250V020 3SM HZ SCT020 BKN025 BKN037 15/12 A3012 RMK A01
KIKT 151955Z AUTO VRB06G19KT 8SM FEW014 BKN020 BKN025 15/13 A3011 RMK A01
KIKT 151935Z AUTO VRB06G18KT 2SM BR SCT010 BKN016 BKN021 16/14 A3011 RMK A01
KIKT 151915Z AUTO 33008G15KT 290V020 2 1/2SM BR SCT009 BKN015 BKN021 16/14 A3011 RMK A01
KIKT 151855Z AUTO VRB05G13KT 1 1/2SM BR SCT007 BKN011 OVC045 16/14 A3011 RMK A01
KIKT 151835Z AUTO 32007G15KT 270V030 1 1/2SM BR BKN010 BKN016 OVC023 16/14 A3012 RMK A01
KIKT 151815Z AUTO VRB06G16KT 1 1/2SM BR BKN011 BKN016 OVC024 16/14 A3013 RMK A01
KIKT 151755Z AUTO VRB06G14KT 1 1/2SM HZ BKN015 OVC025 16/14 A3013 RMK A01
KIKT 151735Z AUTO VRB04G19KT 2 1/2SM HZ BKN016 BKN024 OVC042 17/14 A3013 RMK A01
KIKT 151715Z AUTO VRB05G12KT 5SM HZ SCT019 BKN041 OVC055 18/14 A3014 RMK A01
KIKT 151655Z AUTO VRB05G20KT 10SM OVC055 19/13 A3014 RMK A01
KIKT 151635Z AUTO VRB04G13KT 9SM FEW048 OVC060 20/13 A3014 RMK A01
KIKT 151615Z AUTO VRB05G16KT 7SM FEW036 SCT055 BKN065 20/13 A3015 RMK A01
KIKT 151555Z AUTO VRB05G14KT 8SM FEW033 SCT050 OVC065 20/12 A3014 RMK A01
KIKT 151535Z AUTO VRB05G15KT 10SM SCT050 OVC070 20/12 A3014 RMK A01
KIKT 151515Z AUTO VRB04G15KT 10SM FEW060 OVC070 21/11 A3012 RMK A01
KIKT 151455Z AUTO 02008G16KT 340V070 10SM FEW039 FEW049 OVC070 21/10 A3011 RMK A01
KIKT 151435Z AUTO 01008G14KT 330V030 10SM OVC075 21/10 A3010 RMK A01
KIKT 151415Z AUTO VRB05G13KT 10SM OVC080 21/11 A3008 RMK A01
KIKT 151355Z AUTO VRB06G15KT 10SM FEW065 OVC080 21/12 A3008 RMK A01
KIKT 151335Z AUTO VRB05G13KT 10SM FEW065 OVC080 21/12 A3007 RMK A01
KIKT 151315Z AUTO VRB05G14KT 10SM OVC085 22/11 A3005 RMK A01
KIKT 151255Z AUTO VRB06KT 320V060 10SM FEW080 BKN090 22/10 A3004 RMK A01
KIKT 151235Z AUTO VRB05KT 10SM BKN070 BKN075 22/12 A3003 RMK A01
KIKT 151215Z AUTO 00000G10KT 10SM SCT060 BKN070 22/13 A3003 RMK A01
KIKT 151155Z AUTO 00000KT 10SM BKN060 22/13 A3003 RMK A01
KIKT 151135Z AUTO 00000G10KT 10SM SCT060 22/14 A3003 RMK A01
KIKT 151115Z AUTO 00000KT 10SM FEW075 22/14 A3002 RMK A01
KIKT 151055Z AUTO 00000KT 10SM FEW060 BKN075 22/14 A3002 RMK A01
KIKT 151035Z AUTO 00000KT 10SM BKN060 22/14 A3001 RMK A01
KIKT 151015Z AUTO VRB04KT 10SM OVC060 22/14 A3002 RMK A01
KIKT 150955Z AUTO VRB04KT 10SM OVC060 22/14 A3002 RMK A01
KIKT 150935Z AUTO VRB03KT 10SM OVC060 22/15 A3002 RMK A01
KIKT 150915Z AUTO VRB04G10KT 10SM SCT060 21/15 A3003 RMK A01
KIKT 150855Z AUTO 00000G10KT 10SM CLR 21/15 A3002 RMK A01
KIKT 150835Z AUTO VRB05KT 10SM CLR 22/16 A3002 RMK A01
KIKT 150815Z AUTO VRB05KT 10SM SCT033 BKN041 22/16 A3003 RMK A01
KIKT 150755Z AUTO VRB05KT 10SM BKN033 OVC042 22/16 A3002 RMK A01
KIKT 150735Z AUTO VRB04G12KT 10SM BKN034 OVC043 22/14 A3003 RMK A01
KIKT 150715Z AUTO 25008KT 230V290 10SM SCT033 BKN039 OVC055 22/14 A3002 RMK A01
KIKT 150655Z AUTO VRB06KT 10SM BKN033 BKN041 OVC055 22/14 A3002 RMK A01
KIKT 150635Z AUTO VRB06G12KT 10SM SCT034 SCT039 BKN049 22/14 A3003 RMK A01
KIKT 150615Z AUTO 27008G13KT 10SM SCT034 BKN039 BKN047 22/14 A3003 RMK A01
KIKT 150555Z AUTO VRB06G12KT 10SM SCT035 BKN043 BKN049 22/14 A3003 RMK A01
KIKT 150535Z AUTO VRB07G12KT 10SM BKN034 BKN041 22/14 A3003 RMK A01
KIKT 150515Z AUTO VRB04G11KT 10SM SCT036 BKN042 22/14 A3004 RMK A01
KIKT 150455Z AUTO 25008KT 230V290 10SM FEW034 FEW048 22/14 A3004 RMK A01
KIKT 150435Z AUTO VRB04KT 10SM CLR 22/13 A3004 RMK A01
KIKT 150415Z AUTO VRB05G11KT 10SM SCT037 SCT043 22/13 A3004 RMK A01
KIKT 150355Z AUTO 23009KT 190V250 10SM FEW037 SCT046 22/14 A3005 RMK A01
KIKT 150335Z AUTO 23009KT 10SM FEW036 SCT045 SCT050 22/13 A3004 RMK A01
KIKT 150315Z AUTO VRB06G12KT 10SM FEW037 BKN045 BKN050 22/13 A3004 RMK A01
KIKT 150255Z AUTO VRB05G13KT 10SM SCT039 BKN046 22/13 A3004 RMK A01
KIKT 150235Z AUTO 23010KT 10SM SCT037 SCT043 SCT050 21/13 A3004 RMK A01
KIKT 150215Z AUTO VRB03G12KT 10SM FEW038 21/13 A3003 RMK A01
KIKT 150155Z AUTO VRB06G12KT 10SM CLR 21/13 A3004 RMK A01
KIKT 150135Z AUTO 23007KT 160V300 10SM CLR 21/13 A3004 RMK A01
KIKT 150115Z AUTO 23010KT 10SM CLR 21/13 A3003 RMK A01
KIKT 150055Z AUTO VRB06KT 10SM CLR 22/13 A3002 RMK A01
KIKT 150035Z AUTO VRB06KT 10SM FEW035 FEW041 21/13 A3002 RMK A01
KIKT 150015Z AUTO VRB04G12KT 10SM SCT039 21/13 A3001 RMK A01
KIKT 142355Z AUTO 26007KT 10SM FEW040 21/12 A3002 RMK A01
KIKT 142335Z AUTO 22007KT 070V240 10SM FEW040 21/12 A3000 RMK A01
KIKT 142315Z AUTO 24007KT 200V300 10SM CLR 21/12 A3000 RMK A01
KIKT 142255Z AUTO VRB06KT 10SM FEW038 22/12 A3000 RMK A01
KIKT 142235Z AUTO 00000G10KT 10SM CLR 22/12 A3000 RMK A01
KIKT 142215Z AUTO VRB05KT 10SM CLR 22/12 A3000 RMK A01
KIKT 142155Z AUTO 23007KT 10SM CLR 22/12 A2999 RMK A01
KIKT 142135Z AUTO VRB05G12KT 10SM CLR 23/12 A3000 RMK A01
KIKT 142115Z AUTO 27006KT 10SM CLR 23/12 A2999 RMK A01
KIKT 142055Z AUTO 26005KT 10SM CLR 23/12 A3000 RMK A01
KIKT 142035Z AUTO 24006KT 10SM CLR 23/12 A2999 RMK A01
KIKT 142015Z AUTO VRB05KT 10SM CLR 23/12 A2999 RMK A01
KIKT 141955Z AUTO VRB04KT 10SM CLR 23/12 A2999 RMK A01
KIKT 141935Z AUTO VRB04KT 10SM CLR 23/12 A2999 RMK A01
KIKT 141915Z AUTO 00000KT 10SM CLR 23/12 A3000 RMK A01
KIKT 141855Z AUTO VRB03KT 10SM CLR 23/12 A3000 RMK A01
KIKT 141835Z AUTO 00000G10KT 10SM CLR 24/12 A3000 RMK A01
KIKT 141815Z AUTO 00000KT 10SM CLR 24/12 A3000 RMK A01
KIKT 141755Z AUTO 00000KT 10SM CLR 24/12 A3002 RMK A01
KIKT 141735Z AUTO VRB03KT 10SM CLR 23/12 A3002 RMK A01
KIKT 141715Z AUTO 00000KT 10SM CLR 23/12 A3003 RMK A01
KIKT 141655Z AUTO 00000KT 10SM CLR 23/13 A3004 RMK A01
KIKT 141635Z AUTO VRB04KT 10SM CLR 23/12 A3005 RMK A01
KIKT 141615Z AUTO 00000KT 10SM CLR 23/13 A3004 RMK A01
KIKT 141555Z AUTO VRB04KT 10SM CLR 23/13 A3004 RMK A01
KIKT 141535Z AUTO VRB04G10KT 10SM CLR 23/13 A3005 RMK A01
KIKT 141515Z AUTO 27008KT 10SM CLR 25/09 A3004 RMK A01
KIKT 141455Z AUTO 28007G12KT 10SM CLR 25/10 A3005 RMK A01
KIKT 141435Z AUTO VRB03G11KT 10SM CLR 25/10 A3003 RMK A01
KIKT 141415Z AUTO 28007KT 10SM CLR 24/10 A3003 RMK A01
KIKT 141355Z AUTO 28008G14KT 250V320 10SM CLR 23/10 A3002 RMK A01
KIKT 141335Z AUTO 27010KT 10SM CLR 22/10 A3001 RMK A01
KIKT 141315Z AUTO 28011KT 10SM CLR 20/09 A3001 RMK A01
KIKT 141255Z AUTO 28010KT 10SM CLR 20/09 A3001 RMK A01
KIKT 141235Z AUTO 29007G14KT 260V330 10SM CLR 20/10 A3001 RMK A01
KIKT 141215Z AUTO VRB05G14KT 10SM CLR 20/09 A3001 RMK A01
KIKT 141155Z AUTO VRB05G12KT 10SM FEW038 20/10 A2999 RMK A01